Time;durP1;ratioP1;P1;durP2;ratioP2;P2;SDS_P1;SDS_P2;PMS_P1;PMS_P2;Temp;Humidity;BMP_temperature;BMP_pressure;BME280_temperature;BME280_humidity;BME280_pressure;Samples;Min_cycle;Max_cycle;Signal;HPM_P1;HPM_P2
2023/08/03 00:01:56;;;;;;;3.00;2.80;;;19.00;99.90;;;;;;5018710;28;20266;-78
2023/08/03 00:04:22;;;;;;;2.77;2.57;;;19.00;99.90;;;;;;5041316;28;20177;-80
2023/08/03 00:06:48;;;;;;;2.90;2.70;;;19.00;99.90;;;;;;5048194;28;20264;-80
2023/08/03 00:09:14;;;;;;;3.87;3.53;;;19.00;99.90;;;;;;5036302;28;20258;-80
2023/08/03 00:11:40;;;;;;;3.00;2.80;;;19.10;99.90;;;;;;5017703;28;20550;-79
2023/08/03 00:14:06;;;;;;;5.20;3.20;;;19.00;99.90;;;;;;5024140;28;20177;-81
2023/08/03 00:16:32;;;;;;;3.33;3.07;;;19.00;99.90;;;;;;5018058;28;20298;-82
2023/08/03 00:18:58;;;;;;;3.43;3.20;;;18.90;99.90;;;;;;5037808;28;20180;-80
2023/08/03 00:21:23;;;;;;;3.93;3.20;;;18.90;99.90;;;;;;5034664;28;20184;-79
2023/08/03 00:23:49;;;;;;;4.87;3.07;;;18.80;99.90;;;;;;5039226;28;20172;-80
2023/08/03 00:26:15;;;;;;;3.33;3.00;;;18.80;99.90;;;;;;5039163;28;20183;-79
2023/08/03 00:28:42;;;;;;;2.83;2.70;;;18.80;99.90;;;;;;5016834;28;20184;-79
2023/08/03 00:31:08;;;;;;;3.57;3.27;;;18.80;99.90;;;;;;5016775;28;20613;-80
2023/08/03 00:33:34;;;;;;;3.10;2.90;;;18.80;99.90;;;;;;5034308;28;20242;-79
2023/08/03 00:35:59;;;;;;;3.37;3.17;;;18.70;99.90;;;;;;5034140;28;20180;-78
2023/08/03 00:38:25;;;;;;;3.63;3.10;;;18.70;99.90;;;;;;5034512;28;20183;-78
2023/08/03 00:40:52;;;;;;;2.87;2.77;;;18.60;99.90;;;;;;5033821;28;20222;-79
2023/08/03 00:43:18;;;;;;;3.20;2.87;;;18.70;99.90;;;;;;5033775;28;20177;-79
2023/08/03 00:45:43;;;;;;;3.87;2.70;;;18.70;99.90;;;;;;5016383;28;20239;-79
2023/08/03 00:48:09;;;;;;;2.80;2.70;;;18.70;99.90;;;;;;5017659;28;20180;-79
2023/08/03 00:50:36;;;;;;;3.00;2.80;;;18.70;99.90;;;;;;5051903;28;20220;-80
2023/08/03 00:53:02;;;;;;;3.87;3.60;;;18.60;99.90;;;;;;5037214;28;20164;-79
2023/08/03 00:55:28;;;;;;;3.00;2.90;;;18.60;99.90;;;;;;5017915;28;20706;-79
2023/08/03 00:57:54;;;;;;;3.67;3.37;;;18.60;99.90;;;;;;5016817;28;20214;-78
2023/08/03 01:00:20;;;;;;;3.47;3.17;;;18.60;99.90;;;;;;5034570;28;20238;-77
2023/08/03 01:02:47;;;;;;;3.77;3.30;;;18.60;99.90;;;;;;5035905;28;20153;-78
2023/08/03 01:05:12;;;;;;;3.53;3.23;;;18.50;99.90;;;;;;5036381;28;20176;-80
2023/08/03 01:07:38;;;;;;;3.90;3.50;;;18.50;99.90;;;;;;5046875;28;20156;-80
2023/08/03 01:10:05;;;;;;;3.53;3.23;;;18.50;99.90;;;;;;5037806;28;20236;-80
2023/08/03 01:12:31;;;;;;;3.93;3.63;;;18.60;99.90;;;;;;5019047;28;20212;-79
2023/08/03 01:14:57;;;;;;;5.10;3.57;;;18.50;99.90;;;;;;5017534;28;20183;-80
2023/08/03 01:17:24;;;;;;;4.17;3.70;;;18.60;99.90;;;;;;5033746;28;20164;-80
2023/08/03 01:19:51;;;;;;;3.93;3.63;;;18.60;99.90;;;;;;5015878;28;20192;-82
2023/08/03 01:22:20;;;;;;;3.77;3.47;;;18.60;99.90;;;;;;5034145;28;20169;-81
2023/08/03 01:24:46;;;;;;;4.17;3.87;;;18.60;99.90;;;;;;5015703;28;20587;-80
2023/08/03 01:27:11;;;;;;;3.97;3.67;;;18.60;99.90;;;;;;5033397;28;20173;-78
2023/08/03 01:29:37;;;;;;;3.63;3.43;;;18.60;99.90;;;;;;5038251;28;20177;-80
2023/08/03 01:32:04;;;;;;;4.70;3.80;;;18.50;99.90;;;;;;5029031;28;20247;-79
2023/08/03 01:34:30;;;;;;;4.17;3.80;;;18.60;99.90;;;;;;5036999;28;20179;-78
2023/08/03 01:36:56;;;;;;;4.40;4.00;;;18.50;99.90;;;;;;5023965;28;20274;-79
2023/08/03 01:39:24;;;;;;;3.97;3.60;;;18.40;99.90;;;;;;5039271;28;20176;-80
2023/08/03 01:41:50;;;;;;;3.77;3.57;;;18.40;99.90;;;;;;5046303;28;20168;-81
2023/08/03 01:44:31;;;;;;;5.17;3.60;;;18.40;99.90;;;;;;5045506;28;20281;-81
2023/08/03 01:46:59;;;;;;;3.87;3.63;;;18.30;99.90;;;;;;5020064;28;20199;-78
2023/08/03 01:49:29;;;;;;;3.60;3.40;;;18.30;99.90;;;;;;5035667;28;20187;-79
2023/08/03 01:51:55;;;;;;;4.37;3.83;;;18.30;99.90;;;;;;5035374;28;20256;-80
2023/08/03 01:54:21;;;;;;;4.93;4.43;;;18.30;99.90;;;;;;5019443;28;20184;-80
2023/08/03 01:56:46;;;;;;;4.57;4.17;;;17.50;99.90;;;;;;5037697;28;20181;-79
2023/08/03 01:59:12;;;;;;;3.60;3.40;;;18.20;99.90;;;;;;5036511;28;20186;-78
2023/08/03 02:01:39;;;;;;;3.67;3.37;;;18.20;99.90;;;;;;5036124;28;20219;-79
2023/08/03 02:04:05;;;;;;;4.27;3.97;;;18.20;99.90;;;;;;5037597;28;20184;-77
2023/08/03 02:06:31;;;;;;;3.07;2.93;;;18.30;99.90;;;;;;5039771;28;20199;-79
2023/08/03 02:08:57;;;;;;;3.63;3.43;;;18.20;99.90;;;;;;5038617;28;20184;-80
2023/08/03 02:11:23;;;;;;;4.67;3.57;;;18.10;99.90;;;;;;5020360;28;20223;-81
2023/08/03 02:13:48;;;;;;;3.70;3.33;;;18.00;99.90;;;;;;5038599;28;20168;-79
2023/08/03 02:16:15;;;;;;;3.67;3.40;;;18.00;99.90;;;;;;5037914;28;20212;-79
2023/08/03 02:18:40;;;;;;;3.80;3.60;;;18.00;99.90;;;;;;5021282;28;20176;-80
2023/08/03 02:21:07;;;;;;;3.93;3.63;;;18.10;99.90;;;;;;5024883;28;20188;-81
2023/08/03 02:23:33;;;;;;;4.13;3.83;;;18.10;99.90;;;;;;5039649;28;20200;-79
2023/08/03 02:26:02;;;;;;;3.57;3.37;;;18.20;99.90;;;;;;5038765;28;20172;-78
2023/08/03 02:28:32;;;;;;;4.90;3.60;;;18.20;99.90;;;;;;5038084;28;20169;-80
2023/08/03 02:30:58;;;;;;;4.10;3.70;;;18.30;99.90;;;;;;5043024;28;20238;-79
2023/08/03 02:33:24;;;;;;;4.20;3.90;;;18.30;99.90;;;;;;5039097;28;20530;-80
2023/08/03 02:35:50;;;;;;;4.50;4.10;;;18.40;99.90;;;;;;5021254;28;20612;-78
2023/08/03 02:38:16;;;;;;;3.80;3.57;;;18.40;99.90;;;;;;5040004;28;20222;-78
2023/08/03 02:40:42;;;;;;;3.73;3.40;;;18.40;99.90;;;;;;5040410;28;20195;-79
2023/08/03 02:43:08;;;;;;;3.80;3.60;;;18.40;99.90;;;;;;5046793;28;20157;-80
2023/08/03 02:45:33;;;;;;;3.90;3.60;;;18.40;99.90;;;;;;5051313;28;20226;-81
2023/08/03 02:47:59;;;;;;;3.50;3.30;;;18.40;99.90;;;;;;5040912;28;20187;-80
2023/08/03 02:50:25;;;;;;;4.40;4.10;;;18.30;99.90;;;;;;5051192;28;20200;-77
2023/08/03 02:52:51;;;;;;;3.63;3.43;;;18.30;99.90;;;;;;5040014;28;20242;-79
2023/08/03 02:55:17;;;;;;;4.03;3.50;;;18.20;99.90;;;;;;5039844;28;20176;-79
2023/08/03 02:57:43;;;;;;;3.90;3.60;;;18.10;99.90;;;;;;5044771;28;20172;-77
2023/08/03 03:00:10;;;;;;;5.83;3.90;;;18.10;99.90;;;;;;5038332;28;20315;-80
2023/08/03 03:02:38;;;;;;;4.10;3.80;;;18.10;99.90;;;;;;5020130;28;20183;-79
2023/08/03 03:05:04;;;;;;;4.23;3.83;;;18.00;99.90;;;;;;5038407;28;20624;-81
2023/08/03 03:07:34;;;;;;;4.47;4.03;;;18.10;99.90;;;;;;5037291;28;20180;-79
2023/08/03 03:10:00;;;;;;;4.13;3.83;;;18.10;99.90;;;;;;5047399;28;20200;-79
2023/08/03 03:12:26;;;;;;;4.93;3.97;;;18.10;99.90;;;;;;5040055;28;20173;-79
2023/08/03 03:14:51;;;;;;;4.53;3.87;;;18.00;99.90;;;;;;5040051;28;20176;-76
2023/08/03 03:17:17;;;;;;;4.47;4.07;;;18.00;99.90;;;;;;5037701;28;20168;-80
2023/08/03 03:19:43;;;;;;;4.17;3.87;;;18.00;99.90;;;;;;5052166;28;20173;-80
2023/08/03 03:22:11;;;;;;;4.60;3.70;;;18.00;99.90;;;;;;5040607;28;20187;-80
2023/08/03 03:24:36;;;;;;;4.20;3.80;;;17.90;99.90;;;;;;5018896;28;20215;-78
2023/08/03 03:27:03;;;;;;;4.13;3.60;;;17.90;99.90;;;;;;5018942;28;20181;-77
2023/08/03 03:29:29;;;;;;;4.17;3.87;;;17.90;99.90;;;;;;5040812;28;20177;-80
2023/08/03 03:31:55;;;;;;;4.27;3.97;;;18.00;99.90;;;;;;5041448;28;20185;-77
2023/08/03 03:34:21;;;;;;;3.93;3.63;;;18.00;99.90;;;;;;5038633;28;20179;-79
2023/08/03 03:36:47;;;;;;;3.93;3.63;;;18.00;99.90;;;;;;5036745;28;20175;-79
2023/08/03 03:39:12;;;;;;;3.80;3.50;;;18.10;99.90;;;;;;5036656;28;20172;-80
2023/08/03 03:41:38;;;;;;;4.60;4.20;;;18.20;99.90;;;;;;5018810;28;20184;-78
2023/08/03 03:44:04;;;;;;;4.00;3.70;;;18.10;99.90;;;;;;5019368;28;20188;-79
2023/08/03 03:46:30;;;;;;;4.27;3.90;;;18.20;99.90;;;;;;5036747;28;20172;-80
2023/08/03 03:48:56;;;;;;;3.83;3.57;;;18.20;99.90;;;;;;5036403;28;20177;-81
2023/08/03 03:51:21;;;;;;;4.20;3.80;;;18.20;99.90;;;;;;5036796;28;20208;-78
2023/08/03 03:53:47;;;;;;;4.50;4.00;;;18.20;99.90;;;;;;5036508;28;20275;-78
2023/08/03 03:56:13;;;;;;;4.17;3.87;;;18.20;99.90;;;;;;5018763;28;20703;-79
2023/08/03 03:58:39;;;;;;;4.20;3.90;;;18.20;99.90;;;;;;5035637;28;20172;-81
2023/08/03 04:01:05;;;;;;;4.30;4.00;;;18.20;99.90;;;;;;5019149;28;20184;-78
2023/08/03 04:03:31;;;;;;;4.13;3.80;;;18.10;99.90;;;;;;5038929;28;20644;-78
2023/08/03 04:05:58;;;;;;;4.87;3.87;;;18.10;99.90;;;;;;5021219;28;20255;-79
2023/08/03 04:08:23;;;;;;;4.37;3.97;;;18.10;99.90;;;;;;5020707;28;20185;-79
2023/08/03 04:10:49;;;;;;;4.30;3.90;;;18.10;99.90;;;;;;5037150;28;20695;-77
2023/08/03 04:13:15;;;;;;;4.10;3.70;;;18.10;99.90;;;;;;5038932;28;20184;-77
2023/08/03 04:15:41;;;;;;;4.27;3.90;;;18.20;99.90;;;;;;5018901;28;20217;-78
2023/08/03 04:18:07;;;;;;;5.27;4.53;;;18.30;99.90;;;;;;5038380;28;20165;-80
2023/08/03 04:20:33;;;;;;;4.67;3.93;;;18.30;99.90;;;;;;5042166;28;20207;-78
2023/08/03 04:22:59;;;;;;;4.37;3.97;;;18.40;99.90;;;;;;5039570;28;20174;-77
2023/08/03 04:25:24;;;;;;;4.10;3.70;;;18.40;99.90;;;;;;5051888;28;20174;-81
2023/08/03 04:27:50;;;;;;;5.13;3.80;;;18.40;99.90;;;;;;5057281;28;20164;-83
2023/08/03 04:30:16;;;;;;;4.40;3.97;;;18.50;99.90;;;;;;5042797;28;20208;-79
2023/08/03 04:32:43;;;;;;;4.20;3.90;;;18.60;99.90;;;;;;5019597;28;20188;-79
2023/08/03 04:35:13;;;;;;;4.60;3.87;;;18.60;99.90;;;;;;5037301;28;20179;-78
2023/08/03 04:37:39;;;;;;;4.50;4.00;;;18.80;99.90;;;;;;5038634;28;20597;-80
2023/08/03 04:40:06;;;;;;;4.30;4.00;;;18.80;99.90;;;;;;5049805;28;20172;-81
2023/08/03 04:42:32;;;;;;;3.60;3.40;;;18.80;99.90;;;;;;5037442;28;20169;-81
2023/08/03 04:44:57;;;;;;;4.67;3.50;;;18.90;99.90;;;;;;5018288;28;20228;-79
2023/08/03 04:47:23;;;;;;;5.03;3.90;;;18.80;99.90;;;;;;5042455;28;20184;-80
2023/08/03 04:49:49;;;;;;;5.17;4.77;;;18.60;99.90;;;;;;5042034;28;20227;-78
2023/08/03 04:52:15;;;;;;;4.73;4.43;;;18.50;99.90;;;;;;5023891;28;20707;-77
2023/08/03 04:54:41;;;;;;;4.77;3.93;;;18.60;99.90;;;;;;5041589;28;20628;-81
2023/08/03 04:57:07;;;;;;;4.17;3.83;;;18.60;99.90;;;;;;5039600;28;20161;-79
2023/08/03 04:59:32;;;;;;;5.70;5.10;;;18.60;99.90;;;;;;5049763;28;20177;-78
2023/08/03 05:01:58;;;;;;;4.17;3.87;;;18.70;99.90;;;;;;5036793;28;20177;-80
2023/08/03 05:04:24;;;;;;;6.73;4.90;;;18.70;99.90;;;;;;5035839;28;20168;-81
2023/08/03 05:06:52;;;;;;;5.07;4.33;;;18.80;99.90;;;;;;5034618;28;20168;-81
2023/08/03 05:09:17;;;;;;;7.67;4.30;;;18.80;99.90;;;;;;5035078;28;20165;-80
2023/08/03 05:11:43;;;;;;;4.33;4.03;;;18.80;99.90;;;;;;5035764;28;20526;-83
2023/08/03 05:14:09;;;;;;;4.47;4.07;;;18.80;99.90;;;;;;5036057;28;20180;-80
2023/08/03 05:16:35;;;;;;;4.47;3.50;;;18.80;99.90;;;;;;5035962;28;20176;-82
2023/08/03 05:19:00;;;;;;;7.17;4.03;;;18.90;99.90;;;;;;5036382;28;20207;-85
2023/08/03 05:21:26;;;;;;;5.03;4.63;;;18.90;99.90;;;;;;5037899;28;20180;-83
2023/08/03 05:23:52;;;;;;;5.00;4.60;;;18.90;99.90;;;;;;5040019;28;20187;-79
2023/08/03 05:26:18;;;;;;;4.20;3.90;;;19.00;99.90;;;;;;5039221;28;20169;-83
2023/08/03 05:28:47;;;;;;;4.27;3.97;;;19.10;99.90;;;;;;5022733;28;20172;-81
2023/08/03 05:31:13;;;;;;;5.13;4.63;;;19.20;99.90;;;;;;5037140;28;20544;-81
2023/08/03 05:33:41;;;;;;;4.50;4.10;;;19.30;99.90;;;;;;5018873;28;20264;-79
2023/08/03 05:36:08;;;;;;;6.07;4.90;;;19.40;99.90;;;;;;5035801;28;20172;-79
2023/08/03 05:38:34;;;;;;;4.60;4.13;;;19.60;99.90;;;;;;5035575;28;20271;-78
2023/08/03 05:41:00;;;;;;;4.47;4.17;;;19.70;99.90;;;;;;5041808;28;20219;-80
2023/08/03 05:43:27;;;;;;;4.83;4.00;;;19.70;99.90;;;;;;5040795;28;20534;-78
2023/08/03 05:46:02;;;;;;;8.03;6.27;;;19.80;99.90;;;;;;5038940;28;20216;-79
2023/08/03 05:48:31;;;;;;;6.90;5.27;;;19.90;99.90;;;;;;5037452;28;20184;-78
2023/08/03 05:50:58;;;;;;;4.47;4.07;;;20.00;99.90;;;;;;5038264;28;20208;-79
2023/08/03 05:53:24;;;;;;;4.20;3.90;;;20.20;99.90;;;;;;5039977;28;20641;-81
2023/08/03 05:55:50;;;;;;;4.00;3.70;;;20.20;99.90;;;;;;5038239;28;20177;-80
2023/08/03 05:58:17;;;;;;;4.90;4.50;;;20.20;99.90;;;;;;5044802;28;20187;-78
2023/08/03 06:00:49;;;;;;;4.40;4.00;;;20.30;99.90;;;;;;5039304;28;20164;-79
2023/08/03 06:03:17;;;;;;;4.03;3.70;;;20.30;99.90;;;;;;5043738;28;20186;-80
2023/08/03 06:05:46;;;;;;;4.40;4.10;;;20.50;99.90;;;;;;5039142;28;20180;-81
2023/08/03 06:08:20;;;;;;;3.83;3.63;;;20.50;99.90;;;;;;5039265;28;20180;-80
2023/08/03 06:11:00;;;;;;;4.73;3.60;;;20.60;99.90;;;;;;5040519;28;20227;-78
2023/08/03 06:13:28;;;;;;;4.40;4.00;;;20.80;99.90;;;;;;5020445;28;20669;-77
2023/08/03 06:15:54;;;;;;;4.27;3.97;;;20.80;99.90;;;;;;5018555;28;20184;-78
2023/08/03 06:18:21;;;;;;;3.80;3.60;;;21.00;99.90;;;;;;5037314;28;20179;-79
2023/08/03 06:20:49;;;;;;;4.40;3.90;;;21.00;99.90;;;;;;5021350;28;20271;-78
2023/08/03 06:23:23;;;;;;;4.67;4.10;;;21.20;99.90;;;;;;5039296;28;20251;-80
2023/08/03 06:25:52;;;;;;;4.20;3.83;;;21.20;99.90;;;;;;5049681;28;20200;-79
2023/08/03 06:28:20;;;;;;;3.80;3.50;;;21.10;99.90;;;;;;5020994;28;20215;-77
2023/08/03 06:30:48;;;;;;;4.00;3.70;;;20.10;99.90;;;;;;5038625;28;20215;-78
2023/08/03 06:33:16;;;;;;;3.70;3.50;;;21.00;99.90;;;;;;5039672;28;20176;-79
2023/08/03 06:35:46;;;;;;;3.53;3.33;;;21.10;99.90;;;;;;5026054;28;20192;-78
2023/08/03 06:38:18;;;;;;;4.37;3.90;;;21.10;99.90;;;;;;5048964;28;20171;-79
2023/08/03 06:40:46;;;;;;;4.17;3.50;;;21.10;99.90;;;;;;5040297;28;20203;-79
2023/08/03 06:43:13;;;;;;;4.13;3.83;;;21.10;99.90;;;;;;5023271;28;20183;-79
2023/08/03 06:45:40;;;;;;;4.20;3.90;;;21.10;99.90;;;;;;5040132;28;20220;-78
2023/08/03 06:48:07;;;;;;;3.83;3.53;;;21.10;99.90;;;;;;5021031;28;20642;-80
2023/08/03 06:50:33;;;;;;;4.90;3.67;;;21.10;99.90;;;;;;5036436;28;20717;-79
2023/08/03 06:53:02;;;;;;;3.40;3.10;;;21.10;99.90;;;;;;5037054;28;20169;-79
2023/08/03 06:55:28;;;;;;;3.33;3.13;;;21.00;99.90;;;;;;5038251;28;20183;-78
2023/08/03 06:57:54;;;;;;;3.77;3.57;;;20.90;99.90;;;;;;5038216;28;20208;-79
2023/08/03 07:00:20;;;;;;;3.70;3.40;;;21.00;99.90;;;;;;5023008;28;20191;-78
2023/08/03 07:02:48;;;;;;;3.90;3.53;;;21.10;99.90;;;;;;5044347;28;20185;-79
2023/08/03 07:05:14;;;;;;;3.53;3.33;;;21.10;99.90;;;;;;5038768;28;20351;-79
2023/08/03 07:07:40;;;;;;;4.60;3.00;;;21.20;99.90;;;;;;5019537;28;20184;-79
2023/08/03 07:10:06;;;;;;;7.67;3.43;;;21.10;99.90;;;;;;5020225;28;20607;-78
2023/08/03 07:12:34;;;;;;;3.83;3.60;;;21.20;99.90;;;;;;5020230;28;20177;-79
2023/08/03 07:15:00;;;;;;;3.67;3.23;;;21.20;99.90;;;;;;5019289;28;20227;-78
2023/08/03 07:17:26;;;;;;;3.20;2.90;;;21.30;99.90;;;;;;5024703;28;20180;-78
2023/08/03 07:19:53;;;;;;;2.80;2.70;;;21.20;99.90;;;;;;5021795;28;20338;-79
2023/08/03 07:22:19;;;;;;;3.10;3.00;;;21.20;99.90;;;;;;5040490;28;20176;-79
2023/08/03 07:24:45;;;;;;;3.40;2.60;;;21.40;99.90;;;;;;5040344;28;20268;-78
2023/08/03 07:27:11;;;;;;;2.90;2.70;;;21.40;99.90;;;;;;5039623;28;20177;-78
2023/08/03 07:29:37;;;;;;;2.70;2.60;;;21.50;99.90;;;;;;5037594;28;20188;-79
2023/08/03 07:32:06;;;;;;;3.60;3.30;;;21.50;99.90;;;;;;5037502;28;20204;-79
2023/08/03 07:34:32;;;;;;;3.77;3.47;;;21.50;99.90;;;;;;5039781;28;20190;-78
2023/08/03 07:36:59;;;;;;;3.57;3.37;;;21.50;99.90;;;;;;5037980;28;20647;-79
2023/08/03 07:39:24;;;;;;;3.83;3.50;;;21.50;99.90;;;;;;5036771;28;20183;-78
2023/08/03 07:41:50;;;;;;;3.77;3.47;;;21.40;99.90;;;;;;5036928;28;20173;-78
2023/08/03 07:44:17;;;;;;;3.80;3.50;;;21.40;99.90;;;;;;5033215;28;20196;-84
2023/08/03 07:46:44;;;;;;;3.80;3.50;;;21.40;99.90;;;;;;5059250;28;20169;-79
2023/08/03 07:49:09;;;;;;;3.77;3.47;;;21.40;99.90;;;;;;5042968;28;20513;-79
2023/08/03 07:51:35;;;;;;;3.73;3.37;;;21.40;99.90;;;;;;5037637;28;20220;-79
2023/08/03 07:54:01;;;;;;;5.33;3.83;;;21.40;99.90;;;;;;5036300;28;20180;-78
2023/08/03 07:56:27;;;;;;;4.10;3.80;;;21.40;99.90;;;;;;5036622;28;20184;-79
2023/08/03 07:58:53;;;;;;;4.70;3.50;;;21.30;99.90;;;;;;5035061;28;20702;-77
2023/08/03 08:01:20;;;;;;;4.20;3.90;;;21.40;99.90;;;;;;5037375;28;20180;-79
2023/08/03 08:03:46;;;;;;;5.63;3.53;;;21.50;99.90;;;;;;5031033;28;20173;-79
2023/08/03 08:06:17;;;;;;;3.67;3.37;;;21.60;99.90;;;;;;5038613;28;20204;-78
2023/08/03 08:08:44;;;;;;;3.33;3.03;;;21.60;99.90;;;;;;5037145;28;20169;-80
2023/08/03 08:11:15;;;;;;;3.30;3.10;;;21.70;99.90;;;;;;5018939;28;20259;-81
2023/08/03 08:13:41;;;;;;;3.43;3.23;;;21.60;99.90;;;;;;5041954;28;20282;-79
2023/08/03 08:16:09;;;;;;;3.80;3.40;;;21.50;99.90;;;;;;5025354;28;20255;-79
2023/08/03 08:18:35;;;;;;;6.87;3.97;;;21.40;99.90;;;;;;5018574;28;20194;-79
2023/08/03 08:21:03;;;;;;;3.83;3.50;;;21.40;99.90;;;;;;5037359;28;20236;-80
2023/08/03 08:23:30;;;;;;;3.63;3.33;;;21.50;99.90;;;;;;5034544;28;20272;-80
2023/08/03 08:25:56;;;;;;;3.13;2.93;;;21.50;99.90;;;;;;5017369;28;20224;-80
2023/08/03 08:28:23;;;;;;;3.43;3.23;;;21.60;99.90;;;;;;5016816;28;20189;-79
2023/08/03 08:30:49;;;;;;;3.77;2.90;;;21.60;99.90;;;;;;5037403;28;20199;-78
2023/08/03 08:33:16;;;;;;;2.97;2.77;;;21.60;99.90;;;;;;5023054;28;20605;-82
2023/08/03 08:35:43;;;;;;;3.27;2.97;;;21.60;99.90;;;;;;5036876;28;20252;-80
2023/08/03 08:38:10;;;;;;;2.90;2.70;;;21.60;99.90;;;;;;5037033;28;20180;-78
2023/08/03 08:40:37;;;;;;;3.35;3.05;;;21.70;99.90;;;;;;5036020;28;20702;-79
2023/08/03 08:43:03;;;;;;;3.05;2.88;;;22.00;99.90;;;;;;5035501;28;20172;-78
2023/08/03 08:45:36;;;;;;;2.73;2.53;;;22.10;99.90;;;;;;5035559;28;20228;-80
2023/08/03 08:48:03;;;;;;;2.90;2.57;;;22.20;99.90;;;;;;5018572;28;20181;-78
2023/08/03 08:50:30;;;;;;;2.73;2.63;;;22.20;99.90;;;;;;5034988;28;20211;-80
2023/08/03 08:52:57;;;;;;;3.03;2.50;;;22.20;99.90;;;;;;5017395;28;20640;-81
2023/08/03 08:55:25;;;;;;;3.73;3.10;;;22.20;99.90;;;;;;5035088;28;20176;-78
2023/08/03 08:57:51;;;;;;;5.30;3.50;;;22.10;99.90;;;;;;5035235;28;20177;-78
2023/08/03 09:00:19;;;;;;;2.97;2.87;;;22.20;99.90;;;;;;5034416;28;20219;-79
2023/08/03 09:02:45;;;;;;;3.30;3.00;;;22.20;99.90;;;;;;5017068;28;20184;-79
2023/08/03 09:05:25;;;;;;;3.00;2.80;;;22.30;99.90;;;;;;5017788;28;20210;-79
2023/08/03 09:08:02;;;;;;;3.75;3.47;;;22.40;99.90;;;;;;5037221;28;20172;-78
2023/08/03 09:10:29;;;;;;;3.77;2.97;;;22.40;99.90;;;;;;5034834;28;20200;-79
2023/08/03 09:12:58;;;;;;;3.30;3.10;;;22.40;99.90;;;;;;5033601;28;20234;-79
2023/08/03 09:15:37;;;;;;;3.53;3.27;;;22.20;99.90;;;;;;5035343;28;20219;-79
2023/08/03 09:18:07;;;;;;;4.27;3.30;;;22.10;99.90;;;;;;5035181;28;20280;-79
2023/08/03 09:20:34;;;;;;;3.60;3.30;;;22.10;99.90;;;;;;5029828;28;20525;-78
2023/08/03 09:23:02;;;;;;;3.20;3.00;;;22.20;99.90;;;;;;5050818;28;20168;-79
2023/08/03 09:25:28;;;;;;;3.50;3.30;;;22.20;99.90;;;;;;5055051;28;20171;-77
2023/08/03 09:27:56;;;;;;;4.07;3.67;;;22.20;99.90;;;;;;5046119;28;20180;-80
2023/08/03 09:30:24;;;;;;;3.77;3.47;;;22.10;99.90;;;;;;5035744;28;20200;-82
2023/08/03 09:32:50;;;;;;;4.27;3.97;;;22.10;99.90;;;;;;5035134;28;20160;-78
2023/08/03 09:35:21;;;;;;;3.70;3.50;;;22.10;99.90;;;;;;5034420;28;20184;-80
2023/08/03 09:37:48;;;;;;;4.07;3.70;;;22.00;99.90;;;;;;5035833;28;20494;-81
2023/08/03 09:40:17;;;;;;;3.47;3.27;;;22.00;99.90;;;;;;5035609;28;20656;-79
2023/08/03 09:42:44;;;;;;;3.90;3.50;;;21.90;99.90;;;;;;5047793;28;20238;-79
2023/08/03 09:45:12;;;;;;;3.60;3.30;;;22.00;99.90;;;;;;5051817;28;20220;-80
2023/08/03 09:47:39;;;;;;;3.73;3.30;;;21.90;99.90;;;;;;5034031;28;20196;-79
2023/08/03 09:50:07;;;;;;;3.47;3.17;;;21.90;99.90;;;;;;5032382;28;20200;-79
2023/08/03 09:52:43;;;;;;;4.03;3.00;;;21.80;99.90;;;;;;5033855;28;20164;-78
2023/08/03 09:55:18;;;;;;;3.60;3.40;;;21.70;99.90;;;;;;5049403;28;20279;-81
2023/08/03 09:58:09;;;;;;;3.87;3.50;;;21.60;99.90;;;;;;5045720;28;20168;-80
2023/08/03 10:00:37;;;;;;;3.33;2.87;;;21.70;99.90;;;;;;5047107;28;20196;-79
2023/08/03 10:03:12;;;;;;;5.07;3.20;;;21.60;99.90;;;;;;5051689;28;20207;-80
2023/08/03 10:06:07;;;;;;;3.60;3.40;;;21.60;99.90;;;;;;5028843;28;20320;-80
2023/08/03 10:08:59;;;;;;;4.13;3.37;;;21.90;99.90;;;;;;5050141;28;20199;-79
2023/08/03 10:11:41;;;;;;;5.13;3.20;;;21.60;99.90;;;;;;5038770;28;20226;-77
2023/08/03 10:14:09;;;;;;;6.63;3.50;;;21.60;99.90;;;;;;5021312;28;20176;-78
2023/08/03 10:16:36;;;;;;;3.83;3.53;;;21.50;99.90;;;;;;5004723;28;20184;-79
2023/08/03 10:19:03;;;;;;;3.57;3.27;;;21.50;99.90;;;;;;5038736;28;20226;-78
2023/08/03 10:21:30;;;;;;;4.20;3.20;;;21.50;99.90;;;;;;5039417;28;20173;-77
2023/08/03 10:24:13;;;;;;;3.23;2.93;;;21.40;99.90;;;;;;5040594;28;20173;-79
2023/08/03 10:26:40;;;;;;;3.53;3.23;;;21.50;99.90;;;;;;5049096;28;20183;-79
2023/08/03 10:29:09;;;;;;;4.00;2.83;;;21.50;99.90;;;;;;5047628;28;20195;-78
2023/08/03 10:31:55;;;;;;;3.17;2.70;;;21.50;99.90;;;;;;5044673;28;20247;-79
2023/08/03 10:34:28;;;;;;;2.53;2.43;;;21.40;99.90;;;;;;5041081;28;20211;-77
2023/08/03 10:36:58;;;;;;;2.70;2.50;;;21.30;99.90;;;;;;5038809;28;20249;-77
2023/08/03 10:39:59;;;;;;;2.70;2.50;;;21.30;99.90;;;;;;5038992;28;20169;-79
2023/08/03 10:42:26;;;;;;;2.43;2.33;;;21.10;99.90;;;;;;4963927;29;20203;-80
2023/08/03 10:44:53;;;;;;;3.10;2.80;;;21.10;99.90;;;;;;4962543;29;20709;-78
2023/08/03 10:47:24;;;;;;;2.50;2.30;;;20.90;99.90;;;;;;4942009;29;20647;-80
2023/08/03 10:49:52;;;;;;;2.67;2.20;;;21.00;99.90;;;;;;4958435;29;20179;-78
2023/08/03 10:52:29;;;;;;;2.20;2.00;;;21.00;99.90;;;;;;4959834;29;20711;-78
2023/08/03 10:54:56;;;;;;;2.17;2.03;;;21.00;99.90;;;;;;4960514;29;20187;-79
2023/08/03 10:57:25;;;;;;;2.10;2.00;;;21.00;99.90;;;;;;4958587;29;20175;-79
2023/08/03 10:59:56;;;;;;;2.70;2.40;;;21.00;99.90;;;;;;4941397;29;20183;-77
2023/08/03 11:02:29;;;;;;;2.40;2.20;;;21.00;99.90;;;;;;4949922;29;20163;-79
2023/08/03 11:04:59;;;;;;;2.47;2.27;;;20.90;99.90;;;;;;4961995;28;20275;-79
2023/08/03 11:07:36;;;;;;;2.60;2.40;;;20.90;99.90;;;;;;4964819;29;20222;-80
2023/08/03 11:10:04;;;;;;;3.13;2.57;;;20.90;99.90;;;;;;4963027;29;20187;-79
2023/08/03 11:12:31;;;;;;;2.10;2.00;;;21.00;99.90;;;;;;4958931;29;20191;-79
2023/08/03 11:14:59;;;;;;;2.23;2.07;;;21.00;99.90;;;;;;4960391;29;20187;-79
2023/08/03 11:17:26;;;;;;;2.00;1.80;;;21.00;99.90;;;;;;4988419;28;20189;-78
2023/08/03 11:19:53;;;;;;;2.00;1.90;;;20.90;99.90;;;;;;5051959;28;20230;-78
2023/08/03 11:22:22;;;;;;;2.03;1.87;;;21.00;99.90;;;;;;5040674;28;20241;-79
2023/08/03 11:24:51;;;;;;;2.00;1.90;;;21.00;99.90;;;;;;5040891;28;20169;-81
2023/08/03 11:27:18;;;;;;;2.23;2.13;;;21.00;99.90;;;;;;5038241;28;20577;-79
2023/08/03 11:29:44;;;;;;;2.10;2.00;;;21.00;99.90;;;;;;5050486;28;20176;-79
2023/08/03 11:32:15;;;;;;;2.13;1.80;;;20.80;99.90;;;;;;5045511;28;20279;-80
2023/08/03 11:34:41;;;;;;;2.03;1.93;;;20.80;99.90;;;;;;5039419;28;20164;-80
2023/08/03 11:37:07;;;;;;;2.30;2.10;;;20.80;99.90;;;;;;5038464;28;20176;-78
2023/08/03 11:39:33;;;;;;;2.13;1.93;;;20.70;99.90;;;;;;5039156;28;20307;-79
2023/08/03 11:42:00;;;;;;;2.17;2.07;;;20.70;99.90;;;;;;5037653;28;20176;-78
2023/08/03 11:44:26;;;;;;;3.23;2.20;;;20.80;99.90;;;;;;5020110;28;20224;-80
2023/08/03 11:47:05;;;;;;;1.70;1.60;;;20.70;99.90;;;;;;5037123;28;20604;-77
2023/08/03 11:49:31;;;;;;;1.90;1.80;;;20.80;99.90;;;;;;5037840;28;20640;-78
2023/08/03 11:52:00;;;;;;;2.10;1.97;;;20.80;99.90;;;;;;5038898;28;20567;-79
2023/08/03 11:54:29;;;;;;;2.57;1.83;;;20.80;99.90;;;;;;5037652;28;20172;-79
2023/08/03 11:59:46;;;;;;;1.90;1.80;;;20.70;99.90;;;;;;5036551;28;20225;-80
2023/08/03 12:02:12;;;;;;;1.70;1.60;;;20.60;99.90;;;;;;5020212;28;20179;-79
2023/08/03 12:04:38;;;;;;;1.77;1.67;;;20.50;99.90;;;;;;5036131;28;20255;-78
2023/08/03 12:07:06;;;;;;;1.97;1.80;;;20.40;99.90;;;;;;5035741;28;20251;-78
2023/08/03 12:09:38;;;;;;;2.10;2.00;;;20.40;99.90;;;;;;5036872;28;20173;-81
2023/08/03 12:12:06;;;;;;;2.07;1.80;;;20.30;99.90;;;;;;5037019;28;20243;-81
2023/08/03 12:14:33;;;;;;;2.33;1.70;;;20.20;99.90;;;;;;5038853;28;20199;-78
2023/08/03 12:16:59;;;;;;;2.00;1.80;;;20.30;99.90;;;;;;5026230;28;20176;-79
2023/08/03 12:19:32;;;;;;;3.10;2.23;;;20.30;99.90;;;;;;5037665;28;20164;-80
2023/08/03 12:21:59;;;;;;;1.97;1.87;;;20.20;99.90;;;;;;5038049;28;20188;-81
2023/08/03 12:24:24;;;;;;;3.27;2.10;;;20.20;99.90;;;;;;5020284;28;20646;-80
2023/08/03 12:26:50;;;;;;;2.00;1.80;;;20.10;99.90;;;;;;5041863;28;20315;-79
2023/08/03 12:29:16;;;;;;;1.70;1.50;;;20.10;99.90;;;;;;5037720;28;20208;-79
2023/08/03 12:31:42;;;;;;;2.10;1.90;;;20.30;99.90;;;;;;5039692;28;20204;-80
2023/08/03 12:34:07;;;;;;;1.97;1.70;;;20.20;99.90;;;;;;5019898;28;20208;-81
2023/08/03 12:36:34;;;;;;;3.00;2.00;;;20.30;99.90;;;;;;5018938;28;20204;-79
2023/08/03 12:39:00;;;;;;;2.13;2.03;;;20.50;99.90;;;;;;5019361;28;20184;-81
2023/08/03 12:41:25;;;;;;;2.00;1.90;;;20.40;99.90;;;;;;5024398;28;20176;-80
2023/08/03 12:43:51;;;;;;;3.97;1.93;;;20.40;99.90;;;;;;5047063;28;20215;-78
2023/08/03 12:46:17;;;;;;;4.20;2.00;;;19.70;99.90;;;;;;5024011;28;20227;-78
2023/08/03 12:48:45;;;;;;;2.00;1.90;;;20.30;99.90;;;;;;5036237;28;20176;-79
2023/08/03 12:51:11;;;;;;;1.90;1.80;;;20.20;99.90;;;;;;5020080;28;20212;-78
2023/08/03 12:53:38;;;;;;;1.77;1.67;;;20.20;99.90;;;;;;5036528;28;20207;-78